Time;durP1;ratioP1;P1;durP2;ratioP2;P2;SDS_P1;SDS_P2;PMS_P1;PMS_P2;Temp;Humidity;BMP_temperature;BMP_pressure;BME280_temperature;BME280_humidity;BME280_pressure;Samples;Min_cycle;Max_cycle;Signal;HPM_P1;HPM_P2
2021/12/31 00:01:35;;;;;;;15.30;8.40;;;;;;;;;;5033990;28;20327;-80
2021/12/31 00:04:03;;;;;;;12.57;8.67;;;;;;;;;;5048299;28;20196;-80
2021/12/31 00:06:31;;;;;;;16.40;8.80;;;;;;;;;;5042876;28;20300;-80
2021/12/31 00:08:58;;;;;;;14.63;9.20;;;;;;;;;;5037072;28;20252;-79
2021/12/31 00:11:25;;;;;;;13.17;8.60;;;;;;;;;;5049877;28;20746;-80
2021/12/31 00:13:54;;;;;;;13.00;9.07;;;;;;;;;;5053094;28;20726;-79
2021/12/31 00:16:21;;;;;;;16.20;8.93;;;;;;;;;;5054129;28;20286;-79
2021/12/31 00:18:48;;;;;;;13.57;8.90;;;;;;;;;;5053788;28;20291;-80
2021/12/31 00:21:16;;;;;;;14.30;8.97;;;;;;;;;;5053448;28;20254;-80
2021/12/31 00:23:45;;;;;;;15.03;9.50;;;;;;;;;;5053412;28;20254;-79
2021/12/31 00:26:12;;;;;;;17.03;9.87;;;;;;;;;;5048996;28;20201;-80
2021/12/31 00:28:39;;;;;;;16.03;9.23;;;;;;;;;;5042587;28;20289;-79
2021/12/31 00:31:08;;;;;;;13.87;8.73;;;;;;;;;;5052479;28;20231;-80
2021/12/31 00:33:35;;;;;;;13.37;8.77;;;;;;;;;;5052822;28;20231;-79
2021/12/31 00:36:02;;;;;;;16.60;9.40;;;;;;;;;;5033408;28;20254;-80
2021/12/31 00:38:29;;;;;;;13.30;9.03;;;;;;;;;;5039802;28;20228;-80
2021/12/31 00:40:57;;;;;;;15.67;9.33;;;;;;;;;;5052690;28;20206;-79
2021/12/31 00:43:24;;;;;;;15.10;8.73;;;;;;;;;;5047109;28;20252;-80
2021/12/31 00:45:51;;;;;;;12.23;8.80;;;;;;;;;;5043005;28;20207;-79
2021/12/31 00:48:19;;;;;;;15.90;8.83;;;;;;;;;;5041648;28;20282;-80
2021/12/31 00:50:47;;;;;;;15.27;8.73;;;;;;;;;;5033183;28;20720;-79
2021/12/31 00:53:14;;;;;;;16.70;8.17;;;;;;;;;;5033365;28;20235;-79
2021/12/31 00:55:41;;;;;;;15.67;8.47;;;;;;;;;;5044199;28;20238;-79
2021/12/31 00:58:08;;;;;;;13.00;8.13;;;;;;;;;;5049139;28;20230;-80
2021/12/31 01:00:36;;;;;;;15.50;8.00;;;;;;;;;;5033117;28;20319;-79
2021/12/31 01:03:03;;;;;;;14.63;8.70;;;;;;;;;;5047636;28;20254;-79
2021/12/31 01:05:31;;;;;;;13.00;8.50;;;;;;;;;;5052534;28;20228;-80
2021/12/31 01:07:59;;;;;;;13.80;8.40;;;;;;;;;;5052287;28;20258;-79
2021/12/31 01:10:28;;;;;;;13.13;8.73;;;;;;;;;;5041058;28;20232;-79
2021/12/31 01:12:55;;;;;;;14.60;9.17;;;;;;;;;;5046047;28;20199;-80
2021/12/31 01:15:34;;;;;;;13.43;8.80;;;;;;;;;;5047119;28;20200;-80
2021/12/31 01:18:18;;;;;;;14.93;8.80;;;;;;;;;;5051067;28;20268;-80
2021/12/31 01:20:47;;;;;;;12.80;9.57;;;;;;;;;;5052987;28;20288;-80
2021/12/31 01:23:17;;;;;;;13.60;8.57;;;;;;;;;;5044703;28;20252;-80
2021/12/31 01:25:45;;;;;;;14.60;9.10;;;;;;;;;;5048443;28;20200;-80
2021/12/31 01:28:12;;;;;;;15.37;9.40;;;;;;;;;;5034070;28;20200;-80
2021/12/31 01:30:40;;;;;;;13.23;8.67;;;;;;;;;;5060539;28;20293;-79
2021/12/31 01:33:08;;;;;;;11.90;9.20;;;;;;;;;;5068591;28;20282;-80
2021/12/31 01:35:35;;;;;;;16.17;9.37;;;;;;;;;;5051908;28;20196;-79
2021/12/31 01:38:03;;;;;;;17.07;9.80;;;;;;;;;;5052139;28;20283;-80
2021/12/31 01:40:31;;;;;;;14.70;9.03;;;;;;;;;;5045208;28;20227;-80
2021/12/31 01:42:58;;;;;;;16.50;9.53;;;;;;;;;;5045185;28;20248;-80
2021/12/31 01:45:29;;;;;;;16.37;9.73;;;;;;;;;;5031706;28;20227;-79
2021/12/31 01:48:06;;;;;;;15.20;9.10;;;;;;;;;;5037425;28;20890;-80
2021/12/31 01:50:33;;;;;;;14.70;9.63;;;;;;;;;;5050742;28;20212;-79
2021/12/31 01:53:01;;;;;;;14.07;9.47;;;;;;;;;;5050630;28;20215;-80
2021/12/31 01:55:32;;;;;;;18.23;9.47;;;;;;;;;;5046496;28;20215;-79
2021/12/31 01:58:00;;;;;;;13.07;8.97;;;;;;;;;;5037526;28;20212;-80
2021/12/31 02:00:27;;;;;;;16.40;9.60;;;;;;;;;;5031814;28;20330;-80
2021/12/31 02:02:56;;;;;;;13.37;9.53;;;;;;;;;;5032248;28;20224;-80
2021/12/31 02:05:23;;;;;;;13.73;9.83;;;;;;;;;;5045959;28;20246;-79
2021/12/31 02:07:50;;;;;;;15.40;9.30;;;;;;;;;;5051654;28;20219;-79
2021/12/31 02:10:18;;;;;;;14.67;9.73;;;;;;;;;;5051260;28;20261;-80
2021/12/31 02:12:47;;;;;;;15.03;10.13;;;;;;;;;;5047650;28;20236;-79
2021/12/31 02:15:14;;;;;;;16.47;9.43;;;;;;;;;;5031518;28;20301;-80
2021/12/31 02:17:44;;;;;;;20.00;10.67;;;;;;;;;;5031017;28;20738;-80
2021/12/31 02:20:13;;;;;;;14.13;9.23;;;;;;;;;;5038515;28;20192;-80
2021/12/31 02:22:44;;;;;;;14.43;9.73;;;;;;;;;;5050547;28;20219;-79
2021/12/31 02:25:12;;;;;;;17.77;10.03;;;;;;;;;;5050018;28;20200;-79
2021/12/31 02:27:39;;;;;;;17.27;9.80;;;;;;;;;;5041686;28;20284;-80
2021/12/31 02:30:08;;;;;;;14.53;10.00;;;;;;;;;;5044176;28;20231;-79
2021/12/31 02:32:35;;;;;;;15.50;9.93;;;;;;;;;;5034604;28;20283;-80
2021/12/31 02:35:03;;;;;;;15.50;9.90;;;;;;;;;;5037334;28;20224;-79
2021/12/31 02:37:32;;;;;;;16.77;10.23;;;;;;;;;;5045885;28;20223;-80
2021/12/31 02:39:59;;;;;;;16.10;10.23;;;;;;;;;;5046333;28;20195;-80
2021/12/31 02:42:26;;;;;;;20.13;10.20;;;;;;;;;;5043503;28;20307;-80
2021/12/31 02:44:55;;;;;;;15.23;9.87;;;;;;;;;;5038739;28;20321;-80
2021/12/31 02:47:23;;;;;;;13.97;9.60;;;;;;;;;;5044911;28;20198;-80
2021/12/31 02:49:50;;;;;;;16.10;9.57;;;;;;;;;;5034100;28;20307;-80
2021/12/31 02:52:18;;;;;;;13.20;9.97;;;;;;;;;;5035416;28;20200;-80
2021/12/31 02:54:48;;;;;;;14.67;9.70;;;;;;;;;;5043188;28;20207;-79
2021/12/31 02:57:15;;;;;;;14.90;8.90;;;;;;;;;;5033832;28;20878;-80
2021/12/31 02:59:43;;;;;;;14.93;9.47;;;;;;;;;;5031202;28;20239;-80
2021/12/31 03:02:10;;;;;;;16.13;9.90;;;;;;;;;;5039840;28;20270;-79
2021/12/31 03:04:39;;;;;;;14.23;9.47;;;;;;;;;;5059105;28;20238;-79
2021/12/31 03:07:06;;;;;;;15.70;9.50;;;;;;;;;;5070944;28;20249;-80
2021/12/31 03:09:34;;;;;;;16.47;9.87;;;;;;;;;;5053365;28;20292;-79
2021/12/31 03:12:03;;;;;;;17.20;9.47;;;;;;;;;;5033982;28;20236;-80
2021/12/31 03:14:30;;;;;;;16.80;9.17;;;;;;;;;;5035430;28;20283;-80
2021/12/31 03:16:59;;;;;;;14.33;9.07;;;;;;;;;;5050655;28;20231;-80
2021/12/31 03:19:26;;;;;;;13.07;8.63;;;;;;;;;;5054719;28;20207;-79
2021/12/31 03:21:54;;;;;;;13.63;8.87;;;;;;;;;;5054510;28;20228;-79
2021/12/31 03:24:21;;;;;;;13.07;8.73;;;;;;;;;;5043199;28;20278;-79
2021/12/31 03:26:48;;;;;;;14.27;8.53;;;;;;;;;;5049988;28;20634;-79
2021/12/31 03:29:17;;;;;;;12.53;8.23;;;;;;;;;;5036305;28;20287;-79
2021/12/31 03:31:44;;;;;;;13.97;8.73;;;;;;;;;;5041125;28;20291;-80
2021/12/31 03:34:13;;;;;;;15.67;8.60;;;;;;;;;;5043631;28;20235;-80
2021/12/31 03:36:41;;;;;;;14.00;8.23;;;;;;;;;;5040488;28;20691;-79
2021/12/31 03:39:08;;;;;;;11.17;8.10;;;;;;;;;;5043351;28;20210;-80
2021/12/31 03:41:35;;;;;;;10.70;7.90;;;;;;;;;;5046861;28;20640;-79
2021/12/31 03:44:02;;;;;;;11.03;8.20;;;;;;;;;;5050270;28;20260;-79
2021/12/31 03:46:31;;;;;;;11.30;8.20;;;;;;;;;;5034929;28;20223;-79
2021/12/31 03:48:58;;;;;;;13.77;8.53;;;;;;;;;;5040686;28;20232;-79
2021/12/31 03:51:25;;;;;;;15.47;9.07;;;;;;;;;;5043316;28;20284;-79
2021/12/31 03:53:52;;;;;;;18.03;8.93;;;;;;;;;;5037336;28;20672;-79
2021/12/31 03:56:21;;;;;;;14.23;8.70;;;;;;;;;;5034546;28;20303;-79
2021/12/31 03:58:49;;;;;;;13.87;8.37;;;;;;;;;;5049788;28;20676;-79
2021/12/31 04:01:16;;;;;;;13.63;8.47;;;;;;;;;;5043512;28;20849;-80
2021/12/31 04:03:44;;;;;;;12.60;8.07;;;;;;;;;;5044870;28;20247;-79
2021/12/31 04:06:12;;;;;;;11.27;8.13;;;;;;;;;;5038465;28;20283;-79
2021/12/31 04:08:39;;;;;;;17.27;8.73;;;;;;;;;;5050166;28;20231;-80
2021/12/31 04:11:06;;;;;;;13.87;8.53;;;;;;;;;;5040639;28;20286;-80
2021/12/31 04:13:33;;;;;;;15.60;8.30;;;;;;;;;;5054045;28;20290;-79
2021/12/31 04:16:01;;;;;;;13.93;8.60;;;;;;;;;;5054004;28;20312;-79
2021/12/31 04:18:28;;;;;;;16.03;9.53;;;;;;;;;;5053656;28;20294;-79
2021/12/31 04:20:57;;;;;;;18.97;9.50;;;;;;;;;;5053276;28;20290;-79
2021/12/31 04:23:31;;;;;;;17.37;8.97;;;;;;;;;;5053488;28;20228;-79
2021/12/31 04:25:58;;;;;;;14.80;10.00;;;;;;;;;;5053676;28;20293;-79
2021/12/31 04:28:26;;;;;;;19.67;10.07;;;;;;;;;;5054016;28;20287;-79
2021/12/31 04:30:54;;;;;;;16.40;9.77;;;;;;;;;;5050402;28;20756;-79
2021/12/31 04:33:21;;;;;;;15.20;9.80;;;;;;;;;;5052833;28;20322;-79
2021/12/31 04:35:48;;;;;;;18.17;10.70;;;;;;;;;;5050059;28;20264;-79
2021/12/31 04:38:17;;;;;;;13.77;9.30;;;;;;;;;;5050756;28;20234;-79
2021/12/31 04:40:44;;;;;;;18.23;9.97;;;;;;;;;;5053455;28;20601;-79
2021/12/31 04:43:11;;;;;;;15.90;9.77;;;;;;;;;;5048193;28;20592;-80
2021/12/31 04:45:38;;;;;;;15.03;9.83;;;;;;;;;;5033701;28;20227;-79
2021/12/31 04:48:06;;;;;;;13.37;9.70;;;;;;;;;;5033002;28;20288;-79
2021/12/31 04:50:34;;;;;;;13.67;9.60;;;;;;;;;;5031984;28;20240;-79
2021/12/31 04:53:02;;;;;;;15.80;10.10;;;;;;;;;;5041643;28;20287;-79
2021/12/31 04:55:31;;;;;;;12.37;9.23;;;;;;;;;;5053026;28;20253;-79
2021/12/31 04:58:00;;;;;;;14.53;9.70;;;;;;;;;;5043625;28;20650;-79
2021/12/31 05:00:27;;;;;;;15.20;9.40;;;;;;;;;;5038519;28;20215;-79
2021/12/31 05:02:54;;;;;;;14.00;9.77;;;;;;;;;;5043119;28;20284;-79
2021/12/31 05:05:21;;;;;;;14.67;9.33;;;;;;;;;;5046595;28;20227;-79
2021/12/31 05:07:48;;;;;;;14.43;9.47;;;;;;;;;;5041555;28;20196;-79
2021/12/31 05:10:18;;;;;;;14.30;9.53;;;;;;;;;;5052294;28;20282;-79
2021/12/31 05:12:52;;;;;;;14.47;9.73;;;;;;;;;;5053119;28;20195;-79
2021/12/31 05:15:26;;;;;;;13.27;8.70;;;;;;;;;;5052447;28;20302;-79
2021/12/31 05:17:53;;;;;;;12.40;8.93;;;;;;;;;;5052528;28;20204;-80
2021/12/31 05:20:20;;;;;;;15.43;9.50;;;;;;;;;;5052727;28;20204;-80
2021/12/31 05:22:48;;;;;;;15.63;9.40;;;;;;;;;;5052958;28;20195;-79
2021/12/31 05:25:16;;;;;;;13.50;9.40;;;;;;;;;;5049377;28;20195;-79
2021/12/31 05:27:43;;;;;;;12.97;9.37;;;;;;;;;;5046031;28;20606;-79
2021/12/31 05:30:13;;;;;;;13.63;9.53;;;;;;;;;;5051833;28;20298;-79
2021/12/31 05:32:40;;;;;;;13.67;9.00;;;;;;;;;;5052232;28;20234;-79
2021/12/31 05:35:08;;;;;;;13.53;9.10;;;;;;;;;;5051598;28;20242;-79
2021/12/31 05:37:36;;;;;;;15.83;9.57;;;;;;;;;;5052768;28;20246;-79
2021/12/31 05:40:04;;;;;;;14.07;9.33;;;;;;;;;;5051397;28;20291;-79
2021/12/31 05:42:31;;;;;;;12.33;8.97;;;;;;;;;;5040006;28;20315;-79
2021/12/31 05:44:58;;;;;;;14.70;8.80;;;;;;;;;;5046266;28;20307;-80
2021/12/31 05:47:26;;;;;;;11.73;8.83;;;;;;;;;;5031345;28;20755;-79
2021/12/31 05:49:54;;;;;;;14.97;9.17;;;;;;;;;;5040402;28;20239;-79
2021/12/31 05:52:21;;;;;;;15.33;9.00;;;;;;;;;;5051977;28;20235;-79
2021/12/31 05:54:49;;;;;;;13.77;9.07;;;;;;;;;;5052092;28;20192;-79
2021/12/31 05:57:16;;;;;;;13.77;9.57;;;;;;;;;;5034775;28;20279;-79
2021/12/31 05:59:43;;;;;;;14.33;8.70;;;;;;;;;;5052028;28;20249;-79
2021/12/31 06:02:10;;;;;;;13.97;7.63;;;;;;;;;;5051225;28;20723;-79
2021/12/31 06:04:39;;;;;;;11.13;8.43;;;;;;;;;;5059554;28;20661;-79
2021/12/31 06:07:06;;;;;;;14.50;8.93;;;;;;;;;;5072132;28;20290;-79
2021/12/31 06:09:34;;;;;;;16.20;10.20;;;;;;;;;;5071743;28;20281;-79
2021/12/31 06:12:01;;;;;;;12.40;9.07;;;;;;;;;;5068740;28;20698;-79
2021/12/31 06:14:30;;;;;;;16.57;9.67;;;;;;;;;;5051819;28;20669;-79
2021/12/31 06:17:05;;;;;;;15.73;9.30;;;;;;;;;;5051457;28;20675;-79
2021/12/31 06:19:32;;;;;;;14.63;9.47;;;;;;;;;;5051574;28;20264;-79
2021/12/31 06:22:01;;;;;;;11.87;9.37;;;;;;;;;;5050152;28;20204;-79
2021/12/31 06:24:28;;;;;;;14.63;9.27;;;;;;;;;;5047931;28;20327;-79
2021/12/31 06:26:55;;;;;;;11.37;9.30;;;;;;;;;;5047014;28;20287;-79
2021/12/31 06:29:22;;;;;;;12.93;8.77;;;;;;;;;;5038988;28;20278;-79
2021/12/31 06:31:50;;;;;;;14.13;9.13;;;;;;;;;;5042869;28;20223;-80
2021/12/31 06:34:17;;;;;;;14.10;8.97;;;;;;;;;;5033801;28;20586;-79
2021/12/31 06:36:44;;;;;;;13.20;8.93;;;;;;;;;;5046080;28;20206;-79
2021/12/31 06:39:12;;;;;;;14.10;9.03;;;;;;;;;;5043541;28;20287;-79
2021/12/31 06:41:40;;;;;;;12.73;9.67;;;;;;;;;;5042467;28;20238;-79
2021/12/31 06:44:07;;;;;;;14.10;9.40;;;;;;;;;;5051013;28;20302;-79
2021/12/31 06:46:34;;;;;;;13.33;9.23;;;;;;;;;;5040568;28;20917;-79
2021/12/31 06:49:01;;;;;;;12.77;9.33;;;;;;;;;;5054020;28;20236;-79
2021/12/31 06:51:28;;;;;;;13.90;9.30;;;;;;;;;;5045754;28;20231;-79
2021/12/31 06:53:55;;;;;;;14.37;9.40;;;;;;;;;;5045341;28;20232;-79
2021/12/31 06:56:24;;;;;;;14.03;9.23;;;;;;;;;;5044159;28;20294;-79
2021/12/31 06:58:51;;;;;;;11.37;9.00;;;;;;;;;;5044350;28;20286;-79
2021/12/31 07:01:18;;;;;;;12.23;8.90;;;;;;;;;;5057295;28;20322;-79
2021/12/31 07:03:46;;;;;;;15.97;9.17;;;;;;;;;;5057708;28;20276;-79
2021/12/31 07:06:13;;;;;;;14.07;8.70;;;;;;;;;;5057925;28;20235;-79
2021/12/31 07:08:40;;;;;;;14.23;8.90;;;;;;;;;;5057792;28;20385;-79
2021/12/31 07:11:08;;;;;;;14.80;8.97;;;;;;;;;;5057057;28;20200;-80
2021/12/31 07:13:37;;;;;;;12.83;9.03;;;;;;;;;;5057587;28;20230;-79
2021/12/31 07:16:05;;;;;;;17.07;9.07;;;;;;;;;;5057752;28;20238;-79
2021/12/31 07:18:32;;;;;;;21.17;10.10;;;;;;;;;;5058208;28;20203;-80
2021/12/31 07:20:59;;;;;;;16.87;9.27;;;;;;;;;;5057809;28;20287;-79
2021/12/31 07:23:26;;;;;;;19.47;10.43;;;;;;;;;;5058110;28;20325;-79
2021/12/31 07:25:54;;;;;;;17.80;10.23;;;;;;;;;;5056590;28;20286;-79
2021/12/31 07:28:21;;;;;;;18.57;10.33;;;;;;;;;;5042876;28;20702;-79
2021/12/31 07:30:50;;;;;;;24.30;10.27;;;;;;;;;;5045445;28;20283;-79
2021/12/31 07:33:18;;;;;;;28.73;11.50;;;;;;;;;;5049099;28;20627;-79
2021/12/31 07:35:45;;;;;;;26.10;10.83;;;;;;;;;;5042436;28;20197;-79
2021/12/31 07:38:19;;;;;;;28.40;10.73;;;;;;;;;;5037523;28;20291;-79
2021/12/31 07:40:46;;;;;;;31.97;11.23;;;;;;;;;;5044727;28;20199;-79
2021/12/31 07:43:14;;;;;;;30.63;11.83;;;;;;;;;;5046130;28;20235;-79
2021/12/31 07:45:42;;;;;;;27.00;11.63;;;;;;;;;;5045337;28;20311;-79
2021/12/31 07:48:10;;;;;;;38.20;11.50;;;;;;;;;;5043344;28;20275;-79
2021/12/31 07:50:38;;;;;;;30.27;11.80;;;;;;;;;;5052243;28;20638;-79
2021/12/31 07:53:06;;;;;;;23.00;11.57;;;;;;;;;;5045523;28;20234;-79
2021/12/31 07:55:33;;;;;;;23.73;12.13;;;;;;;;;;5049225;28;20314;-79
2021/12/31 07:58:01;;;;;;;33.20;12.73;;;;;;;;;;5037161;28;20696;-79
2021/12/31 08:00:28;;;;;;;28.87;12.80;;;;;;;;;;5050113;28;20201;-79
2021/12/31 08:02:55;;;;;;;29.97;11.97;;;;;;;;;;5042637;28;20204;-79
2021/12/31 08:05:24;;;;;;;31.30;12.53;;;;;;;;;;5050521;28;20226;-78
2021/12/31 08:07:51;;;;;;;26.53;11.80;;;;;;;;;;5048236;28;20210;-78
2021/12/31 08:10:19;;;;;;;28.63;12.40;;;;;;;;;;5054371;28;20633;-79
2021/12/31 08:12:46;;;;;;;26.70;12.43;;;;;;;;;;5050253;28;20740;-78
2021/12/31 08:15:13;;;;;;;26.40;12.27;;;;;;;;;;5034491;28;20235;-79
2021/12/31 08:17:40;;;;;;;39.80;13.20;;;;;;;;;;5034049;28;20291;-78
2021/12/31 08:20:08;;;;;;;42.33;13.23;;;;;;;;;;5034464;28;20239;-78
2021/12/31 08:22:37;;;;;;;43.37;13.27;;;;;;;;;;5051142;28;20258;-79
2021/12/31 08:25:05;;;;;;;29.77;13.40;;;;;;;;;;5034433;28;20220;-79
2021/12/31 08:27:32;;;;;;;35.50;13.10;;;;;;;;;;5050637;28;20208;-79
2021/12/31 08:29:59;;;;;;;33.17;13.30;;;;;;;;;;5051673;28;20295;-79
2021/12/31 08:32:26;;;;;;;34.70;12.87;;;;;;;;;;5033442;28;20236;-79
2021/12/31 08:34:54;;;;;;;56.33;13.73;;;;;;;;;;5051645;28;20282;-79
2021/12/31 08:37:21;;;;;;;48.40;14.03;;;;;;;;;;5052038;28;20583;-79
2021/12/31 08:39:49;;;;;;;38.40;12.90;;;;;;;;;;5052737;28;20246;-79
2021/12/31 08:42:17;;;;;;;47.73;13.07;;;;;;;;;;5053104;28;20711;-79
2021/12/31 08:44:44;;;;;;;31.70;12.73;;;;;;;;;;5042723;28;20270;-79
2021/12/31 08:47:11;;;;;;;48.37;12.50;;;;;;;;;;5047717;28;20283;-78
2021/12/31 08:49:38;;;;;;;39.63;12.23;;;;;;;;;;5052950;28;20231;-79
2021/12/31 08:52:06;;;;;;;34.97;12.57;;;;;;;;;;5045502;28;20283;-80
2021/12/31 08:54:33;;;;;;;32.70;13.00;;;;;;;;;;5052209;28;20663;-80
2021/12/31 08:57:01;;;;;;;23.10;12.63;;;;;;;;;;5052991;28;20659;-79
2021/12/31 08:59:32;;;;;;;23.23;12.23;;;;;;;;;;5052539;28;20196;-79
2021/12/31 09:02:00;;;;;;;21.40;11.83;;;;;;;;;;5052618;28;21959;-79
2021/12/31 09:04:29;;;;;;;21.70;11.80;;;;;;;;;;5033207;28;20255;-81
2021/12/31 09:06:56;;;;;;;23.10;13.13;;;;;;;;;;5050621;28;20647;-80
2021/12/31 09:09:23;;;;;;;28.73;11.60;;;;;;;;;;5046503;28;20234;-79
2021/12/31 09:11:51;;;;;;;34.40;10.93;;;;;;;;;;5042941;28;20283;-80
2021/12/31 09:14:19;;;;;;;27.20;11.80;;;;;;;;;;5051725;28;20203;-79
2021/12/31 09:16:47;;;;;;;25.17;12.70;;;;;;;;;;5032902;28;20668;-79
2021/12/31 09:19:14;;;;;;;38.60;13.33;;;;;;;;;;5039980;28;20277;-79
2021/12/31 09:21:42;;;;;;;37.80;12.80;;;;;;;;;;5053099;28;20291;-77
2021/12/31 09:24:09;;;;;;;30.07;13.40;;;;;;;;;;5032389;28;20239;-77
2021/12/31 09:26:36;;;;;;;33.43;12.30;;;;;;;;;;5035078;28;20204;-78
2021/12/31 09:29:04;;;;;;;37.93;11.93;;;;;;;;;;5046609;28;20249;-78
2021/12/31 09:31:33;;;;;;;25.27;11.90;;;;;;;;;;5051273;28;20298;-78
2021/12/31 09:34:00;;;;;;;18.03;11.63;;;;;;;;;;5048911;28;20314;-77
2021/12/31 09:36:27;;;;;;;16.10;11.30;;;;;;;;;;5052693;28;20290;-78
2021/12/31 09:38:54;;;;;;;21.70;13.03;;;;;;;;;;5051365;28;20287;-77
2021/12/31 09:41:22;;;;;;;25.10;13.33;;;;;;;;;;5051648;28;20757;-78
2021/12/31 09:43:50;;;;;;;17.90;13.13;;;;;;;;;;5043933;28;20207;-78
2021/12/31 09:46:19;;;;;;;24.03;16.73;;;;;;;;;;5040311;28;20224;-78
2021/12/31 09:48:47;;;;;;;21.93;14.27;;;;;;;;;;5046514;28;20203;-78
2021/12/31 09:51:15;;;;;;;18.73;13.03;;;;;;;;;;5050462;28;20239;-78
2021/12/31 09:53:42;;;;;;;16.97;11.60;;;;;;;;;;5047236;28;20238;-78
2021/12/31 09:56:09;;;;;;;18.83;11.77;;;;;;;;;;5042163;28;20299;-78
2021/12/31 09:58:37;;;;;;;20.40;12.27;;;;;;;;;;5051328;28;20227;-78
2021/12/31 10:01:07;;;;;;;17.97;12.00;;;;;;;;;;5050113;28;20712;-79
2021/12/31 10:03:35;;;;;;;15.97;11.43;;;;;;;;;;5045826;28;20199;-78
2021/12/31 10:06:07;;;;;;;15.47;11.67;;;;;;;;;;5044824;28;20731;-79
2021/12/31 10:08:40;;;;;;;16.53;11.10;;;;;;;;;;5043449;28;20235;-79
2021/12/31 10:11:08;;;;;;;14.87;10.83;;;;;;;;;;5050034;28;20279;-79
2021/12/31 10:13:36;;;;;;;13.97;10.20;;;;;;;;;;5052393;28;20212;-80
2021/12/31 10:16:03;;;;;;;14.07;10.43;;;;;;;;;;5041089;28;20192;-78
2021/12/31 10:18:31;;;;;;;17.27;11.37;;;;;;;;;;5047468;28;20294;-78
2021/12/31 10:20:58;;;;;;;13.93;10.03;;;;;;;;;;5036943;28;20249;-78
2021/12/31 10:23:27;;;;;;;15.70;10.30;;;;;;;;;;5039816;28;20633;-78
2021/12/31 10:26:07;;;;;;;13.97;9.57;;;;;;;;;;5047236;28;20231;-79
2021/12/31 10:28:35;;;;;;;14.37;10.07;;;;;;;;;;5037293;28;20202;-79
2021/12/31 10:31:12;;;;;;;17.07;10.10;;;;;;;;;;5051451;28;20775;-78
2021/12/31 10:33:43;;;;;;;14.00;9.53;;;;;;;;;;5051483;28;20234;-78
2021/12/31 10:36:10;;;;;;;13.47;10.03;;;;;;;;;;5046552;28;20276;-77
2021/12/31 10:38:40;;;;;;;12.13;9.30;;;;;;;;;;5046135;28;20290;-78
2021/12/31 10:41:07;;;;;;;11.57;9.47;;;;;;;;;;5040226;28;20230;-78
2021/12/31 10:43:34;;;;;;;16.30;9.70;;;;;;;;;;5034803;28;20235;-78
2021/12/31 10:46:04;;;;;;;15.73;9.27;;;;;;;;;;5035533;28;20224;-78
2021/12/31 10:48:41;;;;;;;13.47;9.30;;;;;;;;;;5038737;28;20197;-78
2021/12/31 10:51:08;;;;;;;13.03;9.10;;;;;;;;;;5047773;28;20238;-79
2021/12/31 10:53:37;;;;;;;13.33;9.47;;;;;;;;;;5047526;28;20204;-79
2021/12/31 10:56:09;;;;;;;15.27;9.13;;;;;;;;;;5040871;28;20228;-79
2021/12/31 10:58:37;;;;;;;15.93;9.67;;;;;;;;;;5048429;28;20238;-79
2021/12/31 11:01:06;;;;;;;13.03;9.10;;;;;;;;;;5042192;28;20302;-79
2021/12/31 11:03:35;;;;;;;14.47;8.80;;;;;;;;;;5050790;28;20286;-79
2021/12/31 11:06:03;;;;;;;11.93;8.70;;;;;;;;;;5050260;28;20298;-78
2021/12/31 11:08:31;;;;;;;14.27;9.17;;;;;;;;;;5050319;28;20283;-79
2021/12/31 11:10:59;;;;;;;13.30;8.47;;;;;;;;;;5044649;28;20232;-79
2021/12/31 11:13:30;;;;;;;12.50;9.13;;;;;;;;;;5035651;28;20223;-78
2021/12/31 11:15:57;;;;;;;15.17;9.30;;;;;;;;;;5049009;28;20819;-77
2021/12/31 11:18:24;;;;;;;15.33;9.90;;;;;;;;;;5036824;28;20287;-79
2021/12/31 11:20:52;;;;;;;13.43;9.80;;;;;;;;;;5039727;28;20223;-87
2021/12/31 11:23:24;;;;;;;14.93;10.17;;;;;;;;;;5049652;28;20284;-86
2021/12/31 11:25:53;;;;;;;14.73;9.63;;;;;;;;;;5049912;28;20587;-87
2021/12/31 11:28:31;;;;;;;17.27;9.80;;;;;;;;;;5048922;28;20231;-87
2021/12/31 11:31:18;;;;;;;13.80;9.43;;;;;;;;;;5036818;28;20284;-86
2021/12/31 11:33:46;;;;;;;14.83;9.17;;;;;;;;;;5048716;28;20199;-86
2021/12/31 11:36:14;;;;;;;13.30;9.07;;;;;;;;;;5049244;28;20624;-86
2021/12/31 11:38:47;;;;;;;11.53;8.57;;;;;;;;;;5053497;28;20234;-86
2021/12/31 11:41:14;;;;;;;12.07;8.60;;;;;;;;;;5052797;28;20235;-86
2021/12/31 11:43:44;;;;;;;13.33;8.37;;;;;;;;;;5050406;28;20231;-85
2021/12/31 11:46:26;;;;;;;13.17;8.67;;;;;;;;;;5046930;28;20292;-86
2021/12/31 11:48:54;;;;;;;13.23;8.93;;;;;;;;;;5048255;28;20200;-87
2021/12/31 11:51:22;;;;;;;13.87;9.23;;;;;;;;;;5046161;28;20204;-87
2021/12/31 11:54:07;;;;;;;12.27;8.43;;;;;;;;;;5055399;28;20238;-87
2021/12/31 11:56:53;;;;;;;15.33;9.17;;;;;;;;;;5045253;28;20672;-86
2021/12/31 11:59:44;;;;;;;13.90;8.70;;;;;;;;;;5037264;28;20685;-88
2021/12/31 12:02:15;;;;;;;14.27;8.77;;;;;;;;;;5045610;28;20311;-86
2021/12/31 12:04:44;;;;;;;15.00;9.03;;;;;;;;;;5053708;28;20203;-86
2021/12/31 12:07:12;;;;;;;12.33;8.63;;;;;;;;;;5044295;28;20328;-86
2021/12/31 12:09:58;;;;;;;13.23;8.63;;;;;;;;;;5045552;28;20228;-86
2021/12/31 12:12:27;;;;;;;13.37;8.77;;;;;;;;;;5039314;28;20200;-85
2021/12/31 12:14:56;;;;;;;15.00;8.43;;;;;;;;;;5046935;28;20218;-86
2021/12/31 12:17:39;;;;;;;14.10;8.23;;;;;;;;;;5056863;28;20283;-87
2021/12/31 12:20:10;;;;;;;14.77;8.80;;;;;;;;;;5050069;28;20734;-86
2021/12/31 12:22:38;;;;;;;16.07;8.53;;;;;;;;;;5045391;28;20261;-86
2021/12/31 12:25:07;;;;;;;14.27;8.33;;;;;;;;;;5053536;28;20231;-87
2021/12/31 12:27:34;;;;;;;16.63;8.60;;;;;;;;;;5038402;28;20214;-87
2021/12/31 12:30:05;;;;;;;12.80;8.03;;;;;;;;;;5050396;28;20228;-87
2021/12/31 12:32:36;;;;;;;19.30;8.73;;;;;;;;;;5047567;28;20201;-87
2021/12/31 12:35:13;;;;;;;14.80;8.50;;;;;;;;;;5058735;28;20618;-87
2021/12/31 12:37:40;;;;;;;13.87;8.30;;;;;;;;;;5055046;28;20694;-87
2021/12/31 12:40:08;;;;;;;15.23;8.33;;;;;;;;;;5054480;28;20231;-87
2021/12/31 12:42:35;;;;;;;16.70;8.67;;;;;;;;;;5054148;28;20358;-86
2021/12/31 12:45:06;;;;;;;17.30;7.97;;;;;;;;;;5045918;28;20269;-86
2021/12/31 12:47:34;;;;;;;13.30;8.03;;;;;;;;;;5043792;28;20228;-87
2021/12/31 12:50:07;;;;;;;14.00;8.27;;;;;;;;;;5046860;28;20204;-86
2021/12/31 12:52:34;;;;;;;16.47;8.43;;;;;;;;;;5048367;28;20591;-87
2021/12/31 12:55:08;;;;;;;14.00;8.00;;;;;;;;;;5048955;28;20298;-87
2021/12/31 12:57:36;;;;;;;17.83;9.07;;;;;;;;;;5046946;28;20204;-87
2021/12/31 13:00:05;;;;;;;15.93;8.50;;;;;;;;;;5050014;28;20695;-87
2021/12/31 13:02:40;;;;;;;16.27;8.47;;;;;;;;;;5043014;28;20264;-87
2021/12/31 13:05:08;;;;;;;14.50;8.40;;;;;;;;;;5053900;28;20206;-87
2021/12/31 13:07:35;;;;;;;14.57;7.80;;;;;;;;;;5041139;28;20419;-78
2021/12/31 13:10:06;;;;;;;14.47;8.63;;;;;;;;;;5047334;28;20203;-79
2021/12/31 13:12:33;;;;;;;15.37;8.27;;;;;;;;;;5049435;28;20231;-79
2021/12/31 13:15:03;;;;;;;13.67;7.90;;;;;;;;;;5035997;28;20570;-79
2021/12/31 13:17:32;;;;;;;15.80;7.60;;;;;;;;;;5051552;28;20279;-79
2021/12/31 13:20:06;;;;;;;13.23;8.27;;;;;;;;;;5037606;28;20711;-79
2021/12/31 13:22:34;;;;;;;15.80;8.37;;;;;;;;;;5048738;28;20282;-78
2021/12/31 13:25:01;;;;;;;18.53;8.47;;;;;;;;;;5046630;28;20446;-79
2021/12/31 13:27:29;;;;;;;16.60;8.17;;;;;;;;;;5051543;28;20247;-80
2021/12/31 13:30:03;;;;;;;15.00;9.07;;;;;;;;;;5048978;28;20239;-80
2021/12/31 13:32:39;;;;;;;15.20;8.77;;;;;;;;;;5041725;28;20196;-79
2021/12/31 13:35:07;;;;;;;14.70;8.23;;;;;;;;;;5047013;28;20200;-79
2021/12/31 13:37:37;;;;;;;15.07;8.10;;;;;;;;;;5041121;28;20196;-79
2021/12/31 13:40:08;;;;;;;18.03;8.37;;;;;;;;;;5046006;28;20265;-79
2021/12/31 13:42:36;;;;;;;14.17;8.27;;;;;;;;;;5049214;28;20204;-79
2021/12/31 13:45:03;;;;;;;17.43;8.80;;;;;;;;;;5049102;28;20287;-80
2021/12/31 13:47:30;;;;;;;12.90;8.23;;;;;;;;;;5044725;28;20255;-80
2021/12/31 13:50:13;;;;;;;14.87;8.33;;;;;;;;;;5045156;28;20211;-80
2021/12/31 13:52:47;;;;;;;15.43;8.37;;;;;;;;;;5044054;28;20211;-81
2021/12/31 13:55:18;;;;;;;16.07;8.37;;;;;;;;;;5044518;28;20291;-81
2021/12/31 13:57:53;;;;;;;13.47;7.73;;;;;;;;;;5047792;28;20292;-79
2021/12/31 14:00:24;;;;;;;13.33;8.23;;;;;;;;;;5044147;28;20238;-80
2021/12/31 14:02:51;;;;;;;12.30;7.83;;;;;;;;;;5042728;28;20239;-79
2021/12/31 14:05:23;;;;;;;15.97;7.67;;;;;;;;;;5047352;28;20204;-80
2021/12/31 14:07:59;;;;;;;13.60;7.87;;;;;;;;;;5044548;28;20298;-81
2021/12/31 14:10:27;;;;;;;15.53;8.30;;;;;;;;;;5047401;28;20340;-80
2021/12/31 14:12:57;;;;;;;13.93;7.80;;;;;;;;;;5041469;28;20222;-81
2021/12/31 14:15:25;;;;;;;15.90;7.60;;;;;;;;;;5041298;28;20232;-80
2021/12/31 14:17:52;;;;;;;15.37;8.13;;;;;;;;;;5043451;28;20231;-81
2021/12/31 14:20:24;;;;;;;14.13;7.57;;;;;;;;;;5047849;28;20227;-81
2021/12/31 14:22:51;;;;;;;13.13;7.23;;;;;;;;;;5048539;28;20210;-81
2021/12/31 14:25:19;;;;;;;17.27;8.53;;;;;;;;;;5048366;28;20191;-81
2021/12/31 14:27:46;;;;;;;12.20;7.77;;;;;;;;;;5045989;28;20229;-82
2021/12/31 14:30:14;;;;;;;14.83;7.70;;;;;;;;;;5041758;28;20931;-81
2021/12/31 14:32:41;;;;;;;15.10;8.30;;;;;;;;;;5036126;28;20200;-80
2021/12/31 14:35:11;;;;;;;13.53;8.03;;;;;;;;;;5038541;28;20282;-82